Terminal Aerodrome Forecast
Issued by NWS Grand Junction, CO

Home | Current Version | Previous Version | Text Only | Print | Product List | Glossary On
Versions: 1 2 3 4 5 6 7 8 9 10 11 12 13 14 15 16 17 18 19 20 21 22 23 24 25 26 27 28 29 30 31 32 33 34 35 36 37 38 39 40
475
FTUS45 KGJT 081720
TAFGJT
TAF
KGJT 081720Z 0818/0918 15007KT P6SM OVC090
     FM082000 35004KT P6SM OVC070
     FM090200 06002KT P6SM OVC050
     FM090600 10005KT P6SM OVC050
     FM091400 12004KT P6SM BKN045=

USA.gov is the U.S. government's official web portal to all federal, state and local government web resources and services.